createdAt,value
2023-04-09T00:00:18.776Z,27.6732
2023-04-09T00:01:22.935Z,27.7542
2023-04-09T00:02:26.905Z,27.6168
2023-04-09T00:03:30.813Z,27.4685
2023-04-09T00:04:34.765Z,27.5940
2023-04-09T00:05:38.627Z,27.5489
2023-04-09T00:06:42.535Z,27.6206
2023-04-09T00:07:46.425Z,27.6040
2023-04-09T00:08:50.813Z,27.6385
2023-04-09T00:09:54.775Z,27.5766
2023-04-09T00:10:58.914Z,27.6282
2023-04-09T00:12:02.899Z,27.5997
2023-04-09T00:13:06.723Z,27.6230
2023-04-09T00:14:10.627Z,27.6812
2023-04-09T00:15:23.996Z,27.7704
2023-04-09T00:16:19.054Z,27.8506
2023-04-09T00:17:22.958Z,27.8352
2023-04-09T00:18:26.836Z,27.7686
2023-04-09T00:19:30.718Z,27.7161
2023-04-09T00:20:34.617Z,27.6913
2023-04-09T00:21:38.850Z,27.7514
2023-04-09T00:22:42.746Z,27.7534
2023-04-09T00:23:42.942Z,27.6589
2023-04-09T00:24:46.848Z,27.6568
2023-04-09T00:25:50.738Z,27.5865
2023-04-09T00:26:54.639Z,27.6651
2023-04-09T00:27:58.515Z,27.7780
2023-04-09T00:29:02.418Z,27.7768
2023-04-09T00:30:06.308Z,27.6975
2023-04-09T00:31:10.225Z,27.6507
2023-04-09T00:32:14.084Z,27.8332
2023-04-09T00:33:17.990Z,27.8362
2023-04-09T00:34:21.880Z,27.6437
2023-04-09T00:35:25.802Z,27.5918
2023-04-09T00:36:29.900Z,27.6588
2023-04-09T00:37:33.809Z,27.7875
2023-04-09T00:38:37.709Z,27.7569
2023-04-09T00:39:41.668Z,27.6947
2023-04-09T00:40:45.504Z,27.7037
2023-04-09T00:41:49.410Z,27.7828
2023-04-09T00:42:53.297Z,27.7819
2023-04-09T00:43:57.233Z,27.8104
2023-04-09T00:45:01.131Z,27.8095
2023-04-09T00:46:05.046Z,27.8634
2023-04-09T00:47:08.953Z,27.8203
2023-04-09T00:48:12.824Z,27.7728
2023-04-09T00:49:16.728Z,27.9218
2023-04-09T00:50:20.636Z,27.8933
2023-04-09T00:51:24.543Z,27.7988
2023-04-09T00:52:28.414Z,27.7744
2023-04-09T00:53:32.323Z,27.8784
2023-04-09T00:54:36.234Z,27.8540
2023-04-09T00:55:40.141Z,27.8201
2023-04-09T00:56:44.010Z,27.9584
2023-04-09T00:57:47.935Z,27.9613
2023-04-09T00:58:52.377Z,27.8798
2023-04-09T00:59:56.443Z,27.8152
2023-04-09T01:01:00.352Z,27.6844
2023-04-09T01:02:04.276Z,27.8316
2023-04-09T01:03:08.289Z,27.9270
2023-04-09T01:04:12.211Z,27.9200
2023-04-09T01:05:16.112Z,27.9233
2023-04-09T01:06:20.176Z,27.8792
2023-04-09T01:07:24.063Z,27.9686
2023-04-09T01:08:27.965Z,27.9828
2023-04-09T01:09:31.847Z,27.8965
2023-04-09T01:10:35.762Z,27.8826
2023-04-09T01:11:39.642Z,27.9507
2023-04-09T01:12:43.542Z,27.9270
2023-04-09T01:13:47.760Z,27.9647
2023-04-09T01:14:51.659Z,27.9452
2023-04-09T01:15:55.642Z,27.9530
2023-04-09T01:16:59.542Z,27.9383
2023-04-09T01:18:03.489Z,27.9471
2023-04-09T01:19:07.343Z,27.8826
2023-04-09T01:20:11.229Z,27.7645
2023-04-09T01:21:15.355Z,27.8440
2023-04-09T01:22:19.235Z,27.8905
2023-04-09T01:23:23.138Z,27.8568
2023-04-09T01:24:27.249Z,27.8985
2023-04-09T01:25:31.150Z,27.8538
2023-04-09T01:26:35.058Z,27.7598
2023-04-09T01:27:38.968Z,27.7429
2023-04-09T01:28:42.868Z,27.7562
2023-04-09T01:29:46.760Z,27.8085
2023-04-09T01:30:50.717Z,27.8336
2023-04-09T01:31:54.833Z,27.6718
2023-04-09T01:32:58.805Z,27.6530
2023-04-09T01:34:02.873Z,27.8123
2023-04-09T01:35:06.778Z,27.8812
2023-04-09T01:36:10.676Z,27.9401
2023-04-09T01:37:14.564Z,27.8932
2023-04-09T01:38:18.471Z,27.9203
2023-04-09T01:39:22.604Z,27.8782
2023-04-09T01:40:26.508Z,27.9308
2023-04-09T01:41:30.728Z,27.8461
2023-04-09T01:42:34.617Z,27.7767
2023-04-09T01:43:38.506Z,27.8625
2023-04-09T01:44:42.419Z,27.8278
2023-04-09T01:45:46.327Z,27.9340
2023-04-09T01:46:50.299Z,27.9494
2023-04-09T01:47:54.241Z,27.9438
2023-04-09T01:48:58.361Z,27.9514
2023-04-09T01:50:02.317Z,27.9392
2023-04-09T01:51:06.287Z,27.8323
2023-04-09T01:52:10.192Z,27.9175
2023-04-09T01:53:14.090Z,27.9101
2023-04-09T01:54:17.983Z,27.8442
2023-04-09T01:55:21.885Z,27.8726
2023-04-09T01:56:25.982Z,27.9062
2023-04-09T01:57:29.876Z,27.9068
2023-04-09T01:58:33.781Z,27.8842
2023-04-09T01:59:37.965Z,27.7433
2023-04-09T02:00:41.859Z,27.6675
2023-04-09T02:01:45.833Z,27.7110
2023-04-09T02:02:49.858Z,27.7055
2023-04-09T02:03:53.877Z,27.7416
2023-04-09T02:04:57.777Z,27.6657
2023-04-09T02:05:58.126Z,27.7925
2023-04-09T02:07:02.012Z,27.7438
2023-04-09T02:08:05.913Z,27.7599
2023-04-09T02:09:09.997Z,27.7686
2023-04-09T02:11:18.988Z,27.8259
2023-04-09T02:11:18.988Z,27.9196
2023-04-09T02:12:22.866Z,27.8612
2023-04-09T02:13:26.771Z,27.9004
2023-04-09T02:14:30.668Z,27.9718
2023-04-09T02:15:34.585Z,27.8968
2023-04-09T02:16:38.747Z,27.8248
2023-04-09T02:17:42.656Z,27.9175
2023-04-09T02:18:46.779Z,27.8906
2023-04-09T02:19:50.650Z,27.8901
2023-04-09T02:20:54.545Z,27.9949
2023-04-09T02:21:58.437Z,27.9368
2023-04-09T02:23:02.345Z,27.9851
2023-04-09T02:24:06.259Z,27.9706
2023-04-09T02:25:10.172Z,27.8057
2023-04-09T02:26:14.051Z,27.6962
2023-04-09T02:27:18.007Z,27.6711
2023-04-09T02:28:21.874Z,27.6881
2023-04-09T02:29:25.797Z,27.7299
2023-04-09T02:30:29.664Z,27.7405
2023-04-09T02:31:33.866Z,27.7688
2023-04-09T02:32:37.831Z,27.8323
2023-04-09T02:33:41.703Z,27.9049
2023-04-09T02:34:45.601Z,27.9121
2023-04-09T02:35:49.546Z,27.8792
2023-04-09T02:36:53.404Z,27.7791
2023-04-09T02:37:57.318Z,27.8314
2023-04-09T02:39:01.438Z,27.9046
2023-04-09T02:40:05.373Z,27.9196
2023-04-09T02:41:09.257Z,27.9371
2023-04-09T02:42:13.357Z,27.8521
2023-04-09T02:43:17.273Z,27.8397
2023-04-09T02:44:21.146Z,27.8820
2023-04-09T02:45:25.062Z,27.7659
2023-04-09T02:46:29.013Z,27.8037
2023-04-09T02:47:32.968Z,27.8572
2023-04-09T02:48:36.839Z,27.8959
2023-04-09T02:49:40.742Z,27.7159
2023-04-09T02:50:44.664Z,27.5475
2023-04-09T02:51:48.623Z,27.6990
2023-04-09T02:52:52.531Z,27.8591
2023-04-09T02:53:56.732Z,27.6948
2023-04-09T02:55:00.644Z,27.5721
2023-04-09T02:56:04.525Z,27.5280
2023-04-09T02:57:08.437Z,27.5490
2023-04-09T02:58:12.312Z,27.5244
2023-04-09T02:59:16.222Z,27.5402
2023-04-09T03:00:20.117Z,27.4352
2023-04-09T03:01:24.035Z,27.4179
2023-04-09T03:02:28.091Z,27.5099
2023-04-09T03:03:32.098Z,27.6182
2023-04-09T03:04:36.033Z,27.4994
2023-04-09T03:05:39.937Z,27.4693
2023-04-09T03:06:44.053Z,27.4576
2023-04-09T03:07:47.959Z,27.5290
2023-04-09T03:08:52.281Z,27.4291
2023-04-09T03:09:56.306Z,27.5031
2023-04-09T03:11:00.184Z,27.4970
2023-04-09T03:12:04.090Z,27.7514
2023-04-09T03:13:07.982Z,27.6948
2023-04-09T03:14:11.879Z,27.7382
2023-04-09T03:15:15.785Z,27.7149
2023-04-09T03:16:19.724Z,27.7072
2023-04-09T03:17:23.593Z,27.7461
2023-04-09T03:18:27.509Z,27.7931
2023-04-09T03:19:31.395Z,27.8661
2023-04-09T03:20:35.291Z,27.8144
2023-04-09T03:21:39.184Z,27.8539
2023-04-09T03:22:43.089Z,27.7729
2023-04-09T03:23:46.974Z,27.7396
2023-04-09T03:24:50.874Z,27.6583
2023-04-09T03:25:54.774Z,27.7250
2023-04-09T03:26:58.887Z,27.7803
2023-04-09T03:28:02.830Z,27.7224
2023-04-09T03:29:06.690Z,27.7763
2023-04-09T03:30:10.595Z,27.7671
2023-04-09T03:31:14.554Z,27.7255
2023-04-09T03:32:19.174Z,27.6998
2023-04-09T03:33:23.053Z,27.6831
2023-04-09T03:34:26.963Z,27.6581
2023-04-09T03:35:30.884Z,27.6296
2023-04-09T03:36:34.777Z,27.6210
2023-04-09T03:37:38.660Z,27.5647
2023-04-09T03:38:42.576Z,27.5478
2023-04-09T03:39:46.693Z,27.5804
2023-04-09T03:40:50.606Z,27.5973
2023-04-09T03:41:54.710Z,27.5728
2023-04-09T03:42:58.632Z,27.5572
2023-04-09T03:44:02.529Z,27.4891
2023-04-09T03:45:06.424Z,27.4679
2023-04-09T03:46:10.327Z,27.4345
2023-04-09T03:47:14.442Z,27.5110
2023-04-09T03:48:18.342Z,27.5083
2023-04-09T03:49:22.472Z,27.5055
2023-04-09T03:50:26.354Z,27.4766
2023-04-09T03:51:30.265Z,27.4923
2023-04-09T03:52:34.153Z,27.4865
2023-04-09T03:53:38.087Z,27.4320
2023-04-09T03:54:42.291Z,27.4141
2023-04-09T03:55:46.198Z,27.3609
2023-04-09T03:56:50.342Z,27.4483
2023-04-09T03:57:54.247Z,27.4370
2023-04-09T03:58:58.174Z,27.5016
2023-04-09T04:00:02.073Z,27.5097
2023-04-09T04:01:05.954Z,27.5144
2023-04-09T04:02:09.934Z,27.4703
2023-04-09T04:03:13.984Z,27.5028
2023-04-09T04:04:20.468Z,27.5756
2023-04-09T04:05:20.558Z,27.5160
2023-04-09T04:06:24.468Z,27.5117
2023-04-09T04:07:28.363Z,27.4511
2023-04-09T04:08:32.280Z,27.3884
2023-04-09T04:09:36.176Z,27.3666
2023-04-09T04:10:40.084Z,27.4286
2023-04-09T04:11:43.973Z,27.4062
2023-04-09T04:12:47.942Z,27.3636
2023-04-09T04:13:51.820Z,27.3294
2023-04-09T04:14:55.739Z,27.2939
2023-04-09T04:15:59.664Z,27.2881
2023-04-09T04:17:03.761Z,27.2227
2023-04-09T04:18:07.648Z,27.2026
2023-04-09T04:19:11.874Z,27.2279
2023-04-09T04:20:15.752Z,27.1369
2023-04-09T04:21:19.657Z,27.0051
2023-04-09T04:22:26.112Z,26.8524
2023-04-09T04:23:24.909Z,26.7464
2023-04-09T04:24:28.799Z,26.6741
2023-04-09T04:25:32.712Z,26.7221
2023-04-09T04:26:36.612Z,26.7766
2023-04-09T04:27:40.525Z,26.7876
2023-04-09T04:28:44.420Z,26.8705
2023-04-09T04:29:44.515Z,26.9470
2023-04-09T04:30:48.406Z,27.0105
2023-04-09T04:31:52.347Z,27.0167
2023-04-09T04:32:56.240Z,27.0360
2023-04-09T04:34:00.195Z,27.0809
2023-04-09T04:35:04.271Z,27.0818
2023-04-09T04:36:08.166Z,27.0819
2023-04-09T04:37:12.292Z,27.1077
2023-04-09T04:38:16.181Z,27.1627
2023-04-09T04:39:20.095Z,27.1231
2023-04-09T04:40:23.960Z,27.0920
2023-04-09T04:41:27.869Z,27.1147
2023-04-09T04:42:31.961Z,27.0901
2023-04-09T04:43:35.867Z,27.1147
2023-04-09T04:44:39.979Z,27.0617
2023-04-09T04:45:43.926Z,27.0537
2023-04-09T04:46:47.799Z,27.0536
2023-04-09T04:47:51.716Z,27.0349
2023-04-09T04:48:55.587Z,27.0631
2023-04-09T04:49:59.501Z,27.0163
2023-04-09T04:51:03.373Z,27.0411
2023-04-09T04:52:07.614Z,27.0471
2023-04-09T04:53:11.499Z,27.0835
2023-04-09T04:54:15.399Z,27.0201
2023-04-09T04:55:19.289Z,27.0538
2023-04-09T04:56:23.194Z,27.0143
2023-04-09T04:57:27.085Z,26.9895
2023-04-09T04:58:31.005Z,26.9613
2023-04-09T04:59:35.111Z,26.9605
2023-04-09T05:00:39.020Z,26.9485
2023-04-09T05:01:43.015Z,26.9686
2023-04-09T05:02:47.263Z,26.9524
2023-04-09T05:03:51.216Z,26.9338
2023-04-09T05:04:55.192Z,26.9089
2023-04-09T05:05:59.078Z,26.9135
2023-04-09T05:07:02.958Z,26.9147
2023-04-09T05:08:06.872Z,26.9034
2023-04-09T05:09:10.765Z,26.9255
2023-04-09T05:10:14.660Z,26.9354
2023-04-09T05:11:18.536Z,26.8846
2023-04-09T05:12:22.690Z,27.0306
2023-04-09T05:13:26.572Z,26.9395
2023-04-09T05:14:30.484Z,26.8317
2023-04-09T05:15:34.361Z,26.8173
2023-04-09T05:16:38.291Z,26.7324
2023-04-09T05:17:42.203Z,26.6397
2023-04-09T05:18:46.106Z,26.5578
2023-04-09T05:19:49.999Z,26.4731
2023-04-09T05:20:53.912Z,26.5668
2023-04-09T05:21:58.004Z,26.5264
2023-04-09T05:23:01.930Z,26.5007
2023-04-09T05:24:05.818Z,26.4390
2023-04-09T05:25:09.701Z,26.4882
2023-04-09T05:26:13.590Z,26.4765
2023-04-09T05:27:17.502Z,26.4425
2023-04-09T05:28:21.401Z,26.4310
2023-04-09T05:29:26.890Z,26.3824
2023-04-09T05:30:30.800Z,26.4239
2023-04-09T05:31:34.681Z,26.3957
2023-04-09T05:32:38.629Z,26.3354
2023-04-09T05:33:42.487Z,26.3458
2023-04-09T05:34:46.395Z,26.3126
2023-04-09T05:35:50.301Z,26.2510
2023-04-09T05:36:54.208Z,26.1974
2023-04-09T05:37:58.293Z,26.1869
2023-04-09T05:39:02.196Z,26.1237
2023-04-09T05:40:06.414Z,26.0708
2023-04-09T05:41:10.314Z,26.1094
2023-04-09T05:42:14.235Z,26.0256
2023-04-09T05:43:18.105Z,25.9824
2023-04-09T05:44:22.007Z,25.9525
2023-04-09T05:45:25.901Z,25.9394
2023-04-09T05:46:29.911Z,25.9843
2023-04-09T05:47:33.886Z,25.9341
2023-04-09T05:48:37.772Z,25.9151
2023-04-09T05:49:41.640Z,25.9285
2023-04-09T05:50:54.475Z,25.9266
2023-04-09T05:51:50.026Z,25.8488
2023-04-09T05:52:53.934Z,25.8478
2023-04-09T05:53:57.820Z,25.7871
2023-04-09T05:55:01.766Z,25.7899
2023-04-09T05:56:05.609Z,25.7917
2023-04-09T05:57:09.760Z,25.7235
2023-04-09T05:58:13.637Z,25.6855
2023-04-09T05:59:17.536Z,25.6704
2023-04-09T06:00:21.637Z,25.6856
2023-04-09T06:01:25.548Z,25.6574
2023-04-09T06:02:29.485Z,25.6161
2023-04-09T06:03:33.470Z,25.6438
2023-04-09T06:04:37.433Z,25.6215
2023-04-09T06:05:41.330Z,25.5779
2023-04-09T06:06:45.205Z,25.6393
2023-04-09T06:07:49.120Z,25.5740
2023-04-09T06:08:53.014Z,25.5915
2023-04-09T06:09:56.910Z,25.5870
2023-04-09T06:11:00.815Z,25.5781
2023-04-09T06:12:04.754Z,25.5419
2023-04-09T06:13:08.600Z,25.5174
2023-04-09T06:14:12.509Z,25.5232
2023-04-09T06:15:16.398Z,25.5800
2023-04-09T06:16:20.335Z,25.5678
2023-04-09T06:17:20.568Z,25.5392
2023-04-09T06:18:24.440Z,25.5076
2023-04-09T06:19:28.345Z,25.4687
2023-04-09T06:20:32.235Z,25.4771
2023-04-09T06:21:36.131Z,25.4946
2023-04-09T06:22:40.012Z,25.5347
2023-04-09T06:23:43.900Z,25.4546
2023-04-09T06:24:48.132Z,25.4468
2023-04-09T06:25:52.056Z,25.4592
2023-04-09T06:26:55.946Z,25.4526
2023-04-09T06:27:59.827Z,25.4890
2023-04-09T06:29:03.695Z,25.5183
2023-04-09T06:30:07.626Z,25.4281
2023-04-09T06:31:11.537Z,25.4278
2023-04-09T06:32:15.624Z,25.3798
2023-04-09T06:33:19.595Z,25.4449
2023-04-09T06:34:23.493Z,25.3291
2023-04-09T06:35:27.399Z,25.2076
2023-04-09T06:36:31.295Z,25.2939
2023-04-09T06:37:35.192Z,25.2336
2023-04-09T06:38:39.086Z,25.2669
2023-04-09T06:39:50.553Z,25.2710
2023-04-09T06:40:47.480Z,25.2271
2023-04-09T06:41:51.373Z,25.2906
2023-04-09T06:42:55.262Z,25.3175
2023-04-09T06:43:59.145Z,25.3507
2023-04-09T06:45:03.060Z,25.4050
2023-04-09T06:46:06.958Z,25.4234
2023-04-09T06:47:10.850Z,25.3924
2023-04-09T06:48:14.951Z,25.3974
2023-04-09T06:49:18.848Z,25.3647
2023-04-09T06:50:22.978Z,25.3375
2023-04-09T06:51:26.862Z,25.3460
2023-04-09T06:52:30.775Z,25.3623
2023-04-09T06:53:34.743Z,25.3546
2023-04-09T06:54:38.594Z,25.3700
2023-04-09T06:55:42.486Z,25.2998
2023-04-09T06:56:46.380Z,25.3215
2023-04-09T06:57:50.583Z,25.3006
2023-04-09T06:58:54.489Z,25.3666
2023-04-09T06:59:58.374Z,25.3582
2023-04-09T07:01:02.298Z,25.3445
2023-04-09T07:02:06.285Z,25.2850
2023-04-09T07:03:10.253Z,25.2719
2023-04-09T07:04:14.201Z,25.2914
2023-04-09T07:05:18.323Z,25.3017
2023-04-09T07:06:22.198Z,25.2472
2023-04-09T07:07:26.315Z,25.1985
2023-04-09T07:08:30.229Z,25.1956
2023-04-09T07:09:34.131Z,25.1891
2023-04-09T07:10:38.015Z,25.1873
2023-04-09T07:11:41.894Z,25.1558
2023-04-09T07:12:45.809Z,25.1432
2023-04-09T07:13:49.692Z,25.1474
2023-04-09T07:14:53.591Z,25.1341
2023-04-09T07:15:57.508Z,25.1197
2023-04-09T07:17:01.428Z,25.1021
2023-04-09T07:18:05.309Z,25.1074
2023-04-09T07:19:09.217Z,25.1092
2023-04-09T07:20:13.314Z,25.0704
2023-04-09T07:21:17.236Z,25.1165
2023-04-09T07:22:21.114Z,25.1235
2023-04-09T07:23:25.021Z,25.0659
2023-04-09T07:24:28.905Z,25.0715
2023-04-09T07:25:32.858Z,25.0963
2023-04-09T07:26:36.706Z,25.0642
2023-04-09T07:27:40.616Z,25.0633
2023-04-09T07:28:44.503Z,25.0904
2023-04-09T07:29:48.429Z,25.0718
2023-04-09T07:30:52.316Z,25.0777
2023-04-09T07:31:56.244Z,25.1119
2023-04-09T07:33:00.520Z,25.0547
2023-04-09T07:34:04.423Z,25.0322
2023-04-09T07:35:08.307Z,25.0268
2023-04-09T07:36:12.463Z,25.0898
2023-04-09T07:37:16.379Z,25.0599
2023-04-09T07:38:20.281Z,25.0668
2023-04-09T07:39:24.174Z,25.0601
2023-04-09T07:40:24.685Z,25.0406
2023-04-09T07:41:28.590Z,25.0083
2023-04-09T07:42:32.698Z,24.9737
2023-04-09T07:43:36.589Z,24.9680
2023-04-09T07:44:40.500Z,25.0238
2023-04-09T07:45:44.411Z,25.0320
2023-04-09T07:46:48.346Z,25.0519
2023-04-09T07:47:52.251Z,25.0546
2023-04-09T07:48:56.137Z,25.0879
2023-04-09T07:50:00.060Z,25.0249
2023-04-09T07:51:04.170Z,25.0267
2023-04-09T07:52:08.083Z,24.9448
2023-04-09T07:53:11.964Z,24.8870
2023-04-09T07:54:15.862Z,24.8399
2023-04-09T07:55:20.022Z,24.8631
2023-04-09T07:56:23.935Z,24.7931
2023-04-09T07:57:27.821Z,24.7785
2023-04-09T07:58:31.714Z,24.7651
2023-04-09T07:59:35.608Z,24.9090
2023-04-09T08:00:36.050Z,24.9399
2023-04-09T08:01:39.968Z,24.8492
2023-04-09T08:02:43.970Z,24.8290
2023-04-09T08:03:48.102Z,24.7256
2023-04-09T08:04:52.109Z,24.7377
2023-04-09T08:05:52.612Z,24.7958
2023-04-09T08:06:56.505Z,24.8508
2023-04-09T08:08:00.425Z,24.7971
2023-04-09T08:09:04.308Z,24.8294
2023-04-09T08:10:08.206Z,24.8497
2023-04-09T08:11:12.102Z,24.8215
2023-04-09T08:12:16.025Z,24.7616
2023-04-09T08:13:19.901Z,24.8291
2023-04-09T08:14:23.807Z,24.8445
2023-04-09T08:15:27.775Z,24.8538
2023-04-09T08:16:31.662Z,24.8383
2023-04-09T08:17:35.540Z,24.8489
2023-04-09T08:18:39.632Z,24.8553
2023-04-09T08:19:43.534Z,24.7429
2023-04-09T08:20:47.647Z,24.6778
2023-04-09T08:21:51.554Z,24.6544
2023-04-09T08:22:55.443Z,24.5989
2023-04-09T08:23:59.358Z,24.5824
2023-04-09T08:25:03.250Z,24.6424
2023-04-09T08:26:07.136Z,24.6952
2023-04-09T08:27:11.036Z,24.6777
2023-04-09T08:28:14.966Z,24.6642
2023-04-09T08:29:18.834Z,24.6553
2023-04-09T08:30:22.782Z,24.5611
2023-04-09T08:31:26.681Z,24.5931
2023-04-09T08:32:30.628Z,24.5874
2023-04-09T08:33:34.498Z,24.6515
2023-04-09T08:34:38.410Z,24.6677
2023-04-09T08:35:42.299Z,24.6118
2023-04-09T08:36:46.249Z,24.6966
2023-04-09T08:37:50.100Z,24.8035
2023-04-09T08:38:54.099Z,24.7775
2023-04-09T08:39:58.122Z,24.8430
2023-04-09T08:41:02.044Z,24.7965
2023-04-09T08:42:05.939Z,24.9795
2023-04-09T08:43:10.067Z,24.8619
2023-04-09T08:44:13.961Z,24.8241
2023-04-09T08:45:17.874Z,24.8512
2023-04-09T08:46:21.779Z,24.8550
2023-04-09T08:47:25.717Z,24.8587
2023-04-09T08:48:29.683Z,24.8381
2023-04-09T08:49:33.576Z,24.8205
2023-04-09T08:50:37.806Z,24.8128
2023-04-09T08:51:41.696Z,24.7883
2023-04-09T08:52:45.600Z,24.7646
2023-04-09T08:53:49.721Z,24.7472
2023-04-09T08:54:53.650Z,24.7167
2023-04-09T08:55:57.550Z,24.6991
2023-04-09T08:57:01.466Z,24.6969
2023-04-09T08:58:05.356Z,24.6873
2023-04-09T08:59:09.260Z,24.7566
2023-04-09T09:00:13.148Z,24.8150
2023-04-09T09:01:17.084Z,24.8029
2023-04-09T09:02:21.035Z,24.8304
2023-04-09T09:03:25.040Z,24.8384
2023-04-09T09:04:29.025Z,24.7871
2023-04-09T09:05:32.940Z,24.8273
2023-04-09T09:06:36.843Z,24.7949
2023-04-09T09:07:40.736Z,24.7495
2023-04-09T09:08:44.629Z,24.8042
2023-04-09T09:09:48.529Z,24.8258
2023-04-09T09:10:52.428Z,24.9051
2023-04-09T09:11:56.336Z,24.9410
2023-04-09T09:13:00.282Z,24.9883
2023-04-09T09:14:04.195Z,25.0150
2023-04-09T09:15:08.093Z,24.9557
2023-04-09T09:16:12.053Z,24.8961
2023-04-09T09:17:15.947Z,24.9813
2023-04-09T09:18:19.850Z,24.9686
2023-04-09T09:19:23.751Z,24.9621
2023-04-09T09:20:27.803Z,24.9775
2023-04-09T09:21:31.758Z,24.9775
2023-04-09T09:22:35.644Z,24.9900
2023-04-09T09:23:39.553Z,24.9875
2023-04-09T09:24:43.450Z,25.0258
2023-04-09T09:25:47.366Z,25.0566
2023-04-09T09:26:51.270Z,25.0469
2023-04-09T09:27:55.422Z,24.9568
2023-04-09T09:28:59.328Z,25.0237
2023-04-09T09:30:03.208Z,25.0100
2023-04-09T09:31:07.119Z,25.0379
2023-04-09T09:32:10.991Z,25.0357
2023-04-09T09:33:14.895Z,24.9386
2023-04-09T09:34:18.821Z,24.9986
2023-04-09T09:35:22.782Z,25.0057
2023-04-09T09:36:26.663Z,25.0039
2023-04-09T09:37:30.562Z,25.0164
2023-04-09T09:38:34.441Z,25.0320
2023-04-09T09:39:38.352Z,25.0334
2023-04-09T09:40:42.240Z,25.0393
2023-04-09T09:41:46.148Z,24.9780
2023-04-09T09:42:50.047Z,24.9688
2023-04-09T09:43:53.946Z,24.9842
2023-04-09T09:44:57.834Z,24.9663
2023-04-09T09:46:02.002Z,24.9490
2023-04-09T09:47:05.931Z,24.9352
2023-04-09T09:48:10.133Z,24.9050
2023-04-09T09:49:14.021Z,24.8878
2023-04-09T09:50:18.017Z,24.8737
2023-04-09T09:51:22.024Z,24.7883
2023-04-09T09:52:26.733Z,24.8015
2023-04-09T09:53:30.647Z,24.8067
2023-04-09T09:54:34.546Z,24.7645
2023-04-09T09:55:38.455Z,24.7849
2023-04-09T09:56:42.365Z,24.7676
2023-04-09T09:57:46.284Z,24.6844
2023-04-09T09:58:50.651Z,24.6625
2023-04-09T09:59:54.688Z,24.6347
2023-04-09T10:00:58.632Z,24.6656
2023-04-09T10:02:02.572Z,24.6446
2023-04-09T10:03:06.869Z,24.6152
2023-04-09T10:04:10.814Z,24.6263
2023-04-09T10:05:14.681Z,24.5552
2023-04-09T10:06:18.577Z,24.5536
2023-04-09T10:07:22.501Z,24.5412
2023-04-09T10:08:26.463Z,24.5663
2023-04-09T10:09:30.401Z,24.5307
2023-04-09T10:10:34.296Z,24.5104
2023-04-09T10:11:38.204Z,24.4705
2023-04-09T10:12:42.116Z,24.4612
2023-04-09T10:13:46.001Z,24.4607
2023-04-09T10:14:49.906Z,24.4373
2023-04-09T10:15:53.897Z,24.4633
2023-04-09T10:16:57.794Z,24.4128
2023-04-09T10:18:01.704Z,24.3787
2023-04-09T10:19:05.593Z,24.4038
2023-04-09T10:20:09.482Z,24.4319
2023-04-09T10:21:13.379Z,24.3963
2023-04-09T10:22:17.261Z,24.4350
2023-04-09T10:23:21.168Z,24.3983
2023-04-09T10:24:25.061Z,24.4063
2023-04-09T10:25:28.961Z,24.3402
2023-04-09T10:26:32.860Z,24.2766
2023-04-09T10:27:36.758Z,24.3090
2023-04-09T10:28:40.655Z,24.3233
2023-04-09T10:29:44.555Z,24.3023
2023-04-09T10:30:48.688Z,24.2324
2023-04-09T10:31:52.574Z,24.2713
2023-04-09T10:32:56.536Z,24.2714
2023-04-09T10:34:00.394Z,24.2578
2023-04-09T10:35:04.326Z,24.2519
2023-04-09T10:36:08.194Z,24.2256
2023-04-09T10:37:12.093Z,24.2504
2023-04-09T10:38:16.013Z,24.1875
2023-04-09T10:39:19.897Z,24.1564
2023-04-09T10:40:23.776Z,24.1318
2023-04-09T10:41:27.718Z,24.1151
2023-04-09T10:42:31.583Z,24.1138
2023-04-09T10:43:35.497Z,24.1533
2023-04-09T10:44:39.378Z,24.1306
2023-04-09T10:45:43.285Z,24.1039
2023-04-09T10:46:47.221Z,24.0387
2023-04-09T10:47:51.169Z,24.0453
2023-04-09T10:48:55.020Z,23.9918
2023-04-09T10:49:58.928Z,24.0306
2023-04-09T10:51:02.817Z,24.0615
2023-04-09T10:52:07.123Z,24.0510
2023-04-09T10:53:07.159Z,24.0082
2023-04-09T10:54:11.084Z,23.9316
2023-04-09T10:55:14.972Z,23.8972
2023-04-09T10:56:18.877Z,23.8335
2023-04-09T10:57:22.762Z,23.8021
2023-04-09T10:58:26.657Z,23.7703
2023-04-09T10:59:30.549Z,23.7307
2023-04-09T11:00:34.463Z,23.7155
2023-04-09T11:01:38.467Z,23.6834
2023-04-09T11:02:42.572Z,23.6706
2023-04-09T11:03:46.552Z,23.6766
2023-04-09T11:04:50.477Z,23.6243
2023-04-09T11:05:54.353Z,23.6000
2023-04-09T11:06:58.233Z,23.6020
2023-04-09T11:08:02.128Z,23.5807
2023-04-09T11:09:02.539Z,23.4784
2023-04-09T11:10:06.452Z,23.4562
2023-04-09T11:11:10.336Z,23.4018
2023-04-09T11:12:14.248Z,23.4103
2023-04-09T11:13:14.458Z,23.4300
2023-04-09T11:14:18.366Z,23.4746
2023-04-09T11:15:22.253Z,23.5332
2023-04-09T11:16:27.883Z,23.5126
2023-04-09T11:17:27.582Z,23.5088
2023-04-09T11:18:27.907Z,23.5587
2023-04-09T11:19:31.787Z,23.5437
2023-04-09T11:20:35.725Z,23.4946
2023-04-09T11:21:39.578Z,23.4530
2023-04-09T11:22:43.488Z,23.4275
2023-04-09T11:23:47.597Z,23.4268
2023-04-09T11:24:51.508Z,23.4416
2023-04-09T11:25:55.614Z,23.4320
2023-04-09T11:26:59.516Z,23.4169
2023-04-09T11:28:03.406Z,23.3499
2023-04-09T11:29:07.305Z,23.3190
2023-04-09T11:30:11.243Z,23.3214
2023-04-09T11:31:15.151Z,23.2642
2023-04-09T11:32:19.000Z,23.2141
2023-04-09T11:33:23.139Z,23.2011
2023-04-09T11:34:27.021Z,23.1723
2023-04-09T11:35:30.984Z,23.2635
2023-04-09T11:36:35.088Z,23.2176
2023-04-09T11:37:38.988Z,23.1584
2023-04-09T11:38:42.881Z,23.0846
2023-04-09T11:39:46.779Z,23.1249
2023-04-09T11:40:50.901Z,23.0633
2023-04-09T11:41:54.821Z,23.0150
2023-04-09T11:42:58.686Z,23.0156
2023-04-09T11:44:02.577Z,22.9410
2023-04-09T11:45:06.496Z,22.9312
2023-04-09T11:46:10.377Z,22.8146
2023-04-09T11:47:14.285Z,22.7624
2023-04-09T11:48:18.228Z,22.7376
2023-04-09T11:49:22.152Z,22.7019
2023-04-09T11:50:26.025Z,22.6398
2023-04-09T11:51:29.928Z,22.6106
2023-04-09T11:52:33.813Z,22.5515
2023-04-09T11:53:37.726Z,22.5814
2023-04-09T11:54:41.624Z,22.6078
2023-04-09T11:55:45.618Z,22.6357
2023-04-09T11:56:49.764Z,22.5316
2023-04-09T11:57:53.679Z,22.4058
2023-04-09T11:58:57.575Z,22.4115
2023-04-09T12:00:03.806Z,22.3751
2023-04-09T12:01:03.897Z,22.3414
2023-04-09T12:02:07.885Z,22.2425
2023-04-09T12:03:12.135Z,22.2240
2023-04-09T12:04:16.587Z,22.1579
2023-04-09T12:05:20.549Z,22.1909
2023-04-09T12:06:24.558Z,22.1942
2023-04-09T12:07:28.437Z,22.2172
2023-04-09T12:08:32.560Z,22.2635
2023-04-09T12:09:36.469Z,22.2204
2023-04-09T12:10:40.339Z,22.2321
2023-04-09T12:11:44.220Z,22.1325
2023-04-09T12:12:48.144Z,22.1422
2023-04-09T12:13:52.033Z,22.0717
2023-04-09T12:14:55.920Z,22.1025
2023-04-09T12:16:00.050Z,22.0634
2023-04-09T12:17:03.967Z,22.0175
2023-04-09T12:18:07.932Z,21.9448
2023-04-09T12:19:12.044Z,21.9177
2023-04-09T12:20:15.954Z,22.0708
2023-04-09T12:21:19.836Z,22.1280
2023-04-09T12:22:23.742Z,22.1272
2023-04-09T12:23:27.641Z,22.0727
2023-04-09T12:24:31.546Z,22.0772
2023-04-09T12:25:35.460Z,22.1302
2023-04-09T12:26:39.338Z,22.1621
2023-04-09T12:27:43.223Z,22.1739
2023-04-09T12:28:47.137Z,22.1773
2023-04-09T12:29:51.019Z,22.0919
2023-04-09T12:30:54.920Z,22.0919
2023-04-09T12:31:58.817Z,22.0613
2023-04-09T12:33:02.735Z,22.0814
2023-04-09T12:34:06.627Z,22.1194
2023-04-09T12:35:10.508Z,22.1965
2023-04-09T12:36:14.436Z,22.1556
2023-04-09T12:37:18.295Z,22.0921
2023-04-09T12:38:22.201Z,22.1152
2023-04-09T12:39:26.106Z,22.1338
2023-04-09T12:40:30.091Z,22.0019
2023-04-09T12:41:34.399Z,21.8772
2023-04-09T12:42:38.314Z,21.8739
2023-04-09T12:43:43.943Z,21.8025
2023-04-09T12:44:42.585Z,21.7156
2023-04-09T12:45:46.483Z,21.7935
2023-04-09T12:46:50.386Z,21.8015
2023-04-09T12:47:54.278Z,21.7739
2023-04-09T12:48:58.359Z,21.7593
2023-04-09T12:50:02.284Z,21.6427
2023-04-09T12:51:06.147Z,21.5223
2023-04-09T12:52:10.055Z,21.5154